createdAt,value
2023-02-11T00:02:10.213Z,60.83
2023-02-11T00:06:42.024Z,59.27
2023-02-11T00:11:08.177Z,54.67
2023-02-11T00:15:26.364Z,56.03
2023-02-11T00:19:29.285Z,54.27
2023-02-11T00:23:36.139Z,54.63
2023-02-11T00:27:40.726Z,57.87
2023-02-11T00:31:44.772Z,55.70
2023-02-11T00:35:48.318Z,52.70
2023-02-11T00:39:51.676Z,50.40
2023-02-11T00:43:56.696Z,53.60
2023-02-11T00:47:59.811Z,46.30
2023-02-11T00:52:04.685Z,50.17
2023-02-11T00:56:08.380Z,50.67
2023-02-11T01:00:15.563Z,46.37
2023-02-11T01:04:18.486Z,48.13
2023-02-11T01:08:21.841Z,42.43
2023-02-11T01:12:25.936Z,40.37
2023-02-11T01:16:30.810Z,39.07
2023-02-11T01:20:33.948Z,39.93
2023-02-11T01:24:36.911Z,43.13
2023-02-11T01:28:40.010Z,38.17
2023-02-11T01:32:44.870Z,36.37
2023-02-11T01:36:48.023Z,33.73
2023-02-11T01:40:54.750Z,35.53
2023-02-11T01:44:58.859Z,32.40
2023-02-11T01:49:08.196Z,31.73
2023-02-11T01:53:25.710Z,28.40
2023-02-11T01:57:31.912Z,32.87
2023-02-11T02:01:36.358Z,33.57
2023-02-11T02:05:47.229Z,29.30
2023-02-11T02:09:58.524Z,37.50
2023-02-11T02:14:01.478Z,27.43
2023-02-11T02:18:23.898Z,27.03
2023-02-11T02:22:53.959Z,24.57
2023-02-11T02:27:29.787Z,28.70
2023-02-11T02:31:53.405Z,27.47
2023-02-11T02:36:08.683Z,26.30
2023-02-11T02:40:17.906Z,25.13
2023-02-11T02:44:22.290Z,23.77
2023-02-11T02:48:27.520Z,25.77
2023-02-11T02:52:40.267Z,24.10
2023-02-11T02:56:49.152Z,21.43
2023-02-11T03:01:01.143Z,26.07
2023-02-11T03:05:10.756Z,24.67
2023-02-11T03:09:22.379Z,23.73
2023-02-11T03:13:29.010Z,23.47
2023-02-11T03:17:34.648Z,23.90
2023-02-11T03:21:41.879Z,22.83
2023-02-11T03:25:52.042Z,23.47
2023-02-11T03:30:02.620Z,25.40
2023-02-11T03:34:10.996Z,23.40
2023-02-11T03:38:18.755Z,23.10
2023-02-11T03:42:25.769Z,24.07
2023-02-11T03:46:33.512Z,23.20
2023-02-11T03:50:38.351Z,25.87
2023-02-11T03:54:44.670Z,22.67
2023-02-11T03:58:49.559Z,21.67
2023-02-11T04:02:52.506Z,22.60
2023-02-11T04:06:57.576Z,23.07
2023-02-11T04:11:00.618Z,24.00
2023-02-11T04:15:05.453Z,23.53
2023-02-11T04:19:08.616Z,23.13
2023-02-11T04:23:11.540Z,26.10
2023-02-11T04:27:14.482Z,23.13
2023-02-11T04:31:18.890Z,21.57
2023-02-11T04:35:22.122Z,24.17
2023-02-11T04:39:24.946Z,21.87
2023-02-11T04:43:28.611Z,25.67
2023-02-11T04:47:33.842Z,20.53
2023-02-11T04:51:36.751Z,26.37
2023-02-11T04:55:39.825Z,22.80
2023-02-11T04:59:44.816Z,24.83
2023-02-11T05:03:49.302Z,27.53
2023-02-11T05:07:52.384Z,25.70
2023-02-11T05:11:55.224Z,27.20
2023-02-11T05:15:58.553Z,28.73
2023-02-11T05:20:03.589Z,24.00
2023-02-11T05:24:07.710Z,27.07
2023-02-11T05:28:10.764Z,31.73
2023-02-11T05:32:13.758Z,27.73
2023-02-11T05:36:18.198Z,31.30
2023-02-11T05:40:21.356Z,26.63
2023-02-11T05:44:24.310Z,28.97
2023-02-11T05:48:27.870Z,30.70
2023-02-11T05:52:32.302Z,28.57
2023-02-11T05:56:35.829Z,29.30
2023-02-11T06:00:39.440Z,32.90
2023-02-11T06:04:42.470Z,28.47
2023-02-11T06:08:47.003Z,32.93
2023-02-11T06:12:49.877Z,33.90
2023-02-11T06:16:53.485Z,34.00
2023-02-11T06:20:56.847Z,35.93
2023-02-11T06:25:02.308Z,31.07
2023-02-11T06:29:05.506Z,37.47
2023-02-11T06:33:08.778Z,38.83
2023-02-11T06:37:11.914Z,37.63
2023-02-11T06:41:20.064Z,40.37
2023-02-11T06:45:23.008Z,47.20
2023-02-11T06:49:26.305Z,44.60
2023-02-11T06:53:29.954Z,46.40
2023-02-11T06:57:36.470Z,52.37
2023-02-11T07:01:39.347Z,46.30
2023-02-11T07:05:44.121Z,47.80
2023-02-11T07:09:47.768Z,46.40
2023-02-11T07:13:53.075Z,47.53
2023-02-11T07:17:55.912Z,48.40
2023-02-11T07:21:58.878Z,51.03
2023-02-11T07:26:04.446Z,44.07
2023-02-11T07:30:10.426Z,49.07
2023-02-11T07:34:13.428Z,45.33
2023-02-11T07:38:16.714Z,47.70
2023-02-11T07:42:19.682Z,48.10
2023-02-11T07:46:26.043Z,52.33
2023-02-11T07:50:29.212Z,48.53
2023-02-11T07:54:32.115Z,46.20
2023-02-11T07:58:35.612Z,55.17
2023-02-11T08:02:41.549Z,45.73
2023-02-11T08:06:45.250Z,54.03
2023-02-11T08:10:48.518Z,54.33
2023-02-11T08:14:51.667Z,50.97
2023-02-11T08:18:58.374Z,44.77
2023-02-11T08:23:02.376Z,46.97
2023-02-11T08:27:05.570Z,51.83
2023-02-11T08:31:09.053Z,56.00
2023-02-11T08:35:13.510Z,48.67
2023-02-11T08:39:20.216Z,45.70
2023-02-11T08:43:23.722Z,46.73
2023-02-11T08:47:26.963Z,50.37
2023-02-11T08:51:31.541Z,46.93
2023-02-11T08:55:34.494Z,51.47
2023-02-11T08:59:39.970Z,51.37
2023-02-11T09:03:43.182Z,55.27
2023-02-11T09:07:47.665Z,48.90
2023-02-11T09:11:50.684Z,51.70
2023-02-11T09:15:53.495Z,48.33
2023-02-11T09:19:56.504Z,54.40
2023-02-11T09:24:00.903Z,50.37
2023-02-11T09:28:04.152Z,57.37
2023-02-11T09:32:09.850Z,52.87
2023-02-11T09:36:13.363Z,50.40
2023-02-11T09:40:19.911Z,59.73
2023-02-11T09:44:25.873Z,56.90
2023-02-11T09:48:37.762Z,53.93
2023-02-11T09:52:47.369Z,51.20
2023-02-11T09:56:52.309Z,54.03
2023-02-11T10:01:08.521Z,59.70
2023-02-11T10:05:25.844Z,59.77
2023-02-11T10:09:50.898Z,55.73
2023-02-11T10:14:07.311Z,52.13
2023-02-11T10:18:29.716Z,55.70
2023-02-11T10:22:50.389Z,54.00
2023-02-11T10:26:53.798Z,54.70
2023-02-11T10:31:01.736Z,54.17
2023-02-11T10:35:15.545Z,62.67
2023-02-11T10:39:21.067Z,64.63
2023-02-11T10:43:28.393Z,55.40
2023-02-11T10:47:38.092Z,48.77
2023-02-11T10:51:41.208Z,51.87
2023-02-11T10:55:52.339Z,50.33
2023-02-11T11:00:00.523Z,56.23
2023-02-11T11:04:04.958Z,51.00
2023-02-11T11:08:10.100Z,46.20
2023-02-11T11:12:25.895Z,53.87
2023-02-11T11:16:30.954Z,56.23
2023-02-11T11:20:36.467Z,50.93
2023-02-11T11:24:54.065Z,49.10
2023-02-11T11:29:02.862Z,58.47
2023-02-11T11:33:06.251Z,46.60
2023-02-11T11:37:16.050Z,42.07
2023-02-11T11:41:26.868Z,43.93
2023-02-11T11:45:29.899Z,44.20
2023-02-11T11:49:37.603Z,38.27
2023-02-11T11:53:49.297Z,41.10
2023-02-11T11:57:52.556Z,45.70
2023-02-11T12:02:22.743Z,45.87
2023-02-11T12:06:37.407Z,40.10
2023-02-11T12:10:55.337Z,41.97
2023-02-11T12:15:07.192Z,42.07
2023-02-11T12:19:44.598Z,41.83
2023-02-11T12:24:03.260Z,40.93
2023-02-11T12:28:22.412Z,41.23
2023-02-11T12:32:36.430Z,43.83
2023-02-11T12:37:02.912Z,37.77
2023-02-11T12:41:42.123Z,36.63
2023-02-11T12:46:26.304Z,35.00
2023-02-11T12:50:43.560Z,39.53
2023-02-11T12:54:55.030Z,39.43
2023-02-11T12:59:01.646Z,35.50
2023-02-11T13:03:13.458Z,35.13
2023-02-11T13:07:24.110Z,35.57
2023-02-11T13:11:29.584Z,34.07
2023-02-11T13:15:32.837Z,44.93
2023-02-11T13:19:44.912Z,36.17
2023-02-11T13:23:58.052Z,40.70
2023-02-11T13:28:15.451Z,32.60
2023-02-11T13:32:19.045Z,38.87
2023-02-11T13:36:27.599Z,34.90
2023-02-11T13:40:35.551Z,34.37
2023-02-11T13:44:38.607Z,36.60
2023-02-11T13:48:48.193Z,35.47
2023-02-11T13:52:59.355Z,32.37
2023-02-11T13:57:36.093Z,27.07
2023-02-11T14:02:20.254Z,27.23
2023-02-11T14:06:46.637Z,23.97
2023-02-11T14:10:52.411Z,21.90
2023-02-11T14:15:36.044Z,21.27
2023-02-11T14:19:41.313Z,22.13
2023-02-11T14:23:44.885Z,29.00
2023-02-11T14:27:55.288Z,24.90
2023-02-11T14:32:06.166Z,19.90
2023-02-11T14:36:19.992Z,21.47
2023-02-11T14:40:30.460Z,24.73
2023-02-11T14:44:36.069Z,20.90
2023-02-11T14:48:46.017Z,18.40
2023-02-11T14:52:51.109Z,19.13
2023-02-11T14:57:08.514Z,18.43
2023-02-11T15:01:26.948Z,19.97
2023-02-11T15:05:31.482Z,18.17
2023-02-11T15:09:38.850Z,17.77
2023-02-11T15:13:49.704Z,19.80
2023-02-11T15:17:52.842Z,15.67
2023-02-11T15:21:58.580Z,13.37
2023-02-11T15:26:05.517Z,10.00
2023-02-11T15:30:25.983Z,9.60
2023-02-11T15:34:29.219Z,9.77
2023-02-11T15:38:33.616Z,8.80
2023-02-11T15:42:55.725Z,8.90
2023-02-11T15:47:00.753Z,7.80
2023-02-11T15:51:13.182Z,8.87
2023-02-11T15:55:19.811Z,9.73
2023-02-11T15:59:28.239Z,9.77
2023-02-11T16:03:32.956Z,9.57
2023-02-11T16:07:41.077Z,8.13
2023-02-11T16:11:58.034Z,8.23
2023-02-11T16:16:04.587Z,10.53
2023-02-11T16:20:19.038Z,10.17
2023-02-11T16:24:26.205Z,8.57
2023-02-11T16:28:31.603Z,8.57
2023-02-11T16:32:34.858Z,9.00
2023-02-11T16:36:38.280Z,11.87
2023-02-11T16:40:42.296Z,8.63
2023-02-11T16:44:50.870Z,8.57
2023-02-11T16:48:55.242Z,9.43
2023-02-11T16:53:00.877Z,8.03
2023-02-11T16:57:10.155Z,9.17
2023-02-11T17:01:14.743Z,11.17
2023-02-11T17:05:19.943Z,8.60
2023-02-11T17:09:25.083Z,14.53
2023-02-11T17:13:28.602Z,9.90
2023-02-11T17:17:32.964Z,9.87
2023-02-11T17:21:37.046Z,9.57
2023-02-11T17:25:42.209Z,9.27
2023-02-11T17:29:45.229Z,10.07
2023-02-11T17:33:49.887Z,9.03
2023-02-11T17:37:53.844Z,10.40
2023-02-11T17:41:57.075Z,9.73
2023-02-11T17:46:00.099Z,9.00
2023-02-11T17:50:04.844Z,9.40
2023-02-11T17:54:12.536Z,8.60
2023-02-11T17:58:15.465Z,11.63
2023-02-11T18:02:18.649Z,10.47
2023-02-11T18:06:23.093Z,8.73
2023-02-11T18:10:26.518Z,10.20
2023-02-11T18:14:29.918Z,8.90
2023-02-11T18:18:34.032Z,12.10
2023-02-11T18:22:40.844Z,8.13
2023-02-11T18:26:44.114Z,9.50
2023-02-11T18:30:47.142Z,7.80
2023-02-11T18:34:50.173Z,11.07
2023-02-11T18:38:56.993Z,10.70
2023-02-11T18:43:00.110Z,16.67
2023-02-11T18:47:03.007Z,11.33
2023-02-11T18:51:09.703Z,9.63
2023-02-11T18:55:14.050Z,12.53
2023-02-11T18:59:17.243Z,9.83
2023-02-11T19:03:20.275Z,10.33
2023-02-11T19:07:24.963Z,10.67
2023-02-11T19:11:44.162Z,13.07
2023-02-11T19:15:48.287Z,14.60
2023-02-11T19:19:51.450Z,10.00
2023-02-11T19:23:54.853Z,10.30
2023-02-11T19:28:00.303Z,11.27
2023-02-11T19:32:03.542Z,11.87
2023-02-11T19:36:08.125Z,13.47
2023-02-11T19:40:12.800Z,11.47
2023-02-11T19:44:17.181Z,10.60
2023-02-11T19:48:20.216Z,16.40
2023-02-11T19:52:23.174Z,9.30
2023-02-11T19:56:26.225Z,12.33
2023-02-11T20:00:30.922Z,16.27
2023-02-11T20:04:34.088Z,10.37
2023-02-11T20:08:38.614Z,11.43
2023-02-11T20:12:41.872Z,11.13
2023-02-11T20:16:49.501Z,11.97
2023-02-11T20:20:54.171Z,15.23
2023-02-11T20:24:56.969Z,10.60
2023-02-11T20:29:02.181Z,11.77
2023-02-11T20:33:07.185Z,14.90
2023-02-11T20:37:10.479Z,15.87
2023-02-11T20:41:15.888Z,98.23
2023-02-11T20:45:19.066Z,65.03
2023-02-11T20:49:24.879Z,29.77
2023-02-11T20:53:27.802Z,17.80
2023-02-11T20:57:35.031Z,17.57
2023-02-11T21:01:40.607Z,16.90
2023-02-11T21:05:50.952Z,15.43
2023-02-11T21:09:55.231Z,22.83
2023-02-11T21:13:58.724Z,24.20
2023-02-11T21:18:01.735Z,23.27
2023-02-11T21:22:06.083Z,19.53
2023-02-11T21:26:10.134Z,23.80
2023-02-11T21:30:14.240Z,26.93
2023-02-11T21:34:17.134Z,24.07
2023-02-11T21:38:22.191Z,25.77
2023-02-11T21:42:25.290Z,21.47
2023-02-11T21:46:29.129Z,23.37
2023-02-11T21:50:32.184Z,24.10
2023-02-11T21:54:36.860Z,25.23
2023-02-11T21:58:40.135Z,26.30
2023-02-11T22:02:46.319Z,26.13
2023-02-11T22:06:51.855Z,25.13
2023-02-11T22:11:03.262Z,25.63
2023-02-11T22:15:07.290Z,26.63
2023-02-11T22:19:10.989Z,27.33
2023-02-11T22:23:14.877Z,25.20
2023-02-11T22:27:20.316Z,26.07
2023-02-11T22:31:25.578Z,27.47
2023-02-11T22:35:29.403Z,25.07
2023-02-11T22:39:32.730Z,26.03
2023-02-11T22:43:38.240Z,25.50
2023-02-11T22:47:42.372Z,30.20
2023-02-11T22:51:46.078Z,27.73
2023-02-11T22:55:50.185Z,24.07
2023-02-11T23:00:11.607Z,26.13
2023-02-11T23:04:21.082Z,31.60
2023-02-11T23:08:24.396Z,24.00
2023-02-11T23:12:27.482Z,24.23
2023-02-11T23:16:34.077Z,27.17
2023-02-11T23:20:37.735Z,24.43
2023-02-11T23:24:40.656Z,27.60
2023-02-11T23:28:45.945Z,26.47
2023-02-11T23:32:50.880Z,24.83
2023-02-11T23:36:54.053Z,24.80
2023-02-11T23:40:56.947Z,26.17
2023-02-11T23:45:00.030Z,30.20
2023-02-11T23:49:04.866Z,23.10
2023-02-11T23:53:09.957Z,24.83
2023-02-11T23:57:13.634Z,23.53
